Aeroporto :
LOGIN :

Iscrizione | Disclaimer

   EN    FR    IT 

 










Sommario :    VFR   VFR Marginale   IFR   IFR Intensivo   IFR Molto Intensivo
Visibilità : 
Base nubi : 
>= 8 km
>= 3000ft
5 / 8 km
1000 / 3000 ft
1500m / 5 km
500 / 1000 ft
800 / 1500m
200 / 500 ft
< 800m
< 200 ft
Simboli :   Temporali  Nebbia  Neve Forte  Precipitazioni Forti  Vento > 20 kt
SIGMETs :   Varie  Temporali  Ghiacco  Turbolenza  Onda orograficha  Ceneri Vulcaniche






- Altitudine del aeroporto : 142 ft
- Codice IATA : ALC


LEAL - Alicante

ULTIMO METAR :
  • 191630Z 36025G35KT 330V030 9999 TS FEW015CB BKN065 10/02 Q1013 NOSIG

METARs OBSOLETI :
  • 191621Z 36023G34KT 330V030 9999 TS FEW015CB BKN065 10/03 Q1013 NOSIG
  • 191600Z 36019G32KT 330V030 9999 FEW015 BKN065 11/02 Q1014 NOSIG
  • 191530Z 01015KT 350V050 9999 FEW018TCU BKN065 12/03 Q1013 NOSIG
  • 191500Z 36017G27KT 320V030 9999 FEW018TCU BKN065 11/02 Q1013 NOSIG
  • 191430Z 36019G31KT 320V040 9999 FEW018TCU BKN061 12/02 Q1013 NOSIG
  • 191400Z 01015KT 9999 FEW018TCU BKN061 12/02 Q1013 NOSIG

TAF AMD TAF LEAL
Valido dal 19 a 16 ore il 20 a 12 ore UTC


191619Z 1916/2012 36012KT 9999 SCT030 TX13/2012Z TN06/2006Z
BECMG 1916/1917 04030G45KT
TEMPO 1916/1920 3000 TSRA FEW015CB
TEMPO 1916/2012 4000 RA FEW030TCU
PROB30
TEMPO 1920/2006 04035G55KT
BECMG 2005/2007 09012KT



MetMap, La meteo Aeronautica in un colpo d'occhio ! - Copyright ORBIFLY Dicembre 2007 - Disclaimer

ORBIFLY MET'MAP TEAM :

Programmazione e sviluppo : Alexandra Zaïnal
Concezione : Baudouin d'Aumeries
Aiuto per la programmazione : Marc-Olivier Méhu
Supporto tecnico e logistico : Manuel Goepfert
Aiuto per la traduzione : Arnaldo La Scala

Contatto : metmap@orbifly.com




FONTI E CREDITI :

   NOAA